LOG54HJ EGPL-EGPF

Flight info

Callsign LOG54HJ
Flight time 0h 34m
Altitude 23000
Route BEN DCT TOBMO Y958 BRUCE
Aircraft A320/M-SDE3FGHIRWY/LB1

Departure

Time 2026-04-16 20:34
Airport Benbecula Airport (EGPL)

Arrival

Time 2026-04-16 21:09
Airport Glasgow Airport (EGPF)
Time Latitude Longitude Altitude Speed Heading
2026-04-16 20:23 57.47516 -7.37126 27 ft 0 kts 21°
2026-04-16 20:30 57.47523 -7.37131 26 ft 2 kts 341°
2026-04-16 20:30 57.47528 -7.37174 26 ft 6 kts 264°
2026-04-16 20:30 57.47506 -7.37292 27 ft 11 kts 272°
2026-04-16 20:30 57.47562 -7.37407 26 ft 13 kts 322°
2026-04-16 20:31 57.47638 -7.37493 30 ft 12 kts 349°
2026-04-16 20:31 57.47691 -7.37364 26 ft 16 kts 54°
2026-04-16 20:31 57.47771 -7.37170 24 ft 22 kts 54°
2026-04-16 20:31 57.47876 -7.36887 23 ft 28 kts 54°
2026-04-16 20:32 57.47991 -7.36581 28 ft 29 kts 54°
2026-04-16 20:32 57.48115 -7.36248 21 ft 33 kts 56°
2026-04-16 20:32 57.48247 -7.35885 19 ft 35 kts 56°
2026-04-16 20:32 57.48381 -7.35515 24 ft 35 kts 56°
2026-04-16 20:33 57.48497 -7.35175 22 ft 20 kts 60°
2026-04-16 20:33 57.48569 -7.35028 17 ft 11 kts 346°
2026-04-16 20:33 57.48550 -7.35101 18 ft 7 kts 218°
2026-04-16 20:33 57.48507 -7.35198 21 ft 22 kts 234°
2026-04-16 20:34 57.48230 -7.35946 19 ft 124 kts 236°
2026-04-16 20:34 57.47632 -7.37569 530 ft 166 kts 229°
2026-04-16 20:34 57.46936 -7.39382 1618 ft 181 kts 226°
2026-04-16 20:34 57.46074 -7.41295 2208 ft 202 kts 211°
2026-04-16 20:35 57.44696 -7.42196 3003 ft 222 kts 184°
2026-04-16 20:35 57.43147 -7.41665 4131 ft 236 kts 158°
2026-04-16 20:35 57.41817 -7.39753 5376 ft 247 kts 142°
2026-04-16 20:35 57.40508 -7.37669 6565 ft 249 kts 147°
2026-04-16 20:36 57.39120 -7.35693 7657 ft 254 kts 149°
2026-04-16 20:36 57.37683 -7.33715 8726 ft 261 kts 149°
2026-04-16 20:36 57.36209 -7.31687 9763 ft 267 kts 149°
2026-04-16 20:36 57.34663 -7.29546 10375 ft 289 kts 149°
2026-04-16 20:37 57.33010 -7.27238 11022 ft 303 kts 148°
2026-04-16 20:37 57.31315 -7.24831 11887 ft 311 kts 147°
2026-04-16 20:37 57.29591 -7.22360 12775 ft 317 kts 147°
2026-04-16 20:37 57.27858 -7.19869 13665 ft 322 kts 147°
2026-04-16 20:38 57.26072 -7.17305 14465 ft 328 kts 147°
2026-04-16 20:38 57.24257 -7.14705 15284 ft 333 kts 147°
2026-04-16 20:38 57.22412 -7.12068 16096 ft 337 kts 148°
2026-04-16 20:38 57.20546 -7.09404 16899 ft 342 kts 148°
2026-04-16 20:39 57.18653 -7.06699 17701 ft 347 kts 148°
2026-04-16 20:39 57.16732 -7.03957 18447 ft 351 kts 148°
2026-04-16 20:39 57.14789 -7.01195 19202 ft 354 kts 148°
2026-04-16 20:39 57.12822 -6.98410 19975 ft 358 kts 148°
2026-04-16 20:40 57.10841 -6.95610 20731 ft 361 kts 148°
2026-04-16 20:40 57.08837 -6.92779 21461 ft 364 kts 148°
2026-04-16 20:40 57.06819 -6.89931 22177 ft 368 kts 148°
2026-04-16 20:40 57.04775 -6.87047 22690 ft 371 kts 148°
2026-04-16 20:41 57.02731 -6.84164 22826 ft 366 kts 148°
2026-04-16 20:41 57.00764 -6.81371 22837 ft 349 kts 148°
2026-04-16 20:41 56.98887 -6.78707 22842 ft 344 kts 149°
2026-04-16 20:41 56.96992 -6.76040 22840 ft 342 kts 149°
2026-04-16 20:42 56.95096 -6.73393 22842 ft 342 kts 149°
2026-04-16 20:42 56.93198 -6.70756 22838 ft 342 kts 149°
2026-04-16 20:42 56.91304 -6.68124 22837 ft 342 kts 149°
2026-04-16 20:42 56.89404 -6.65485 22841 ft 343 kts 149°
2026-04-16 20:43 56.87506 -6.62848 22842 ft 343 kts 149°
2026-04-16 20:43 56.85605 -6.60203 22844 ft 343 kts 149°
2026-04-16 20:43 56.83709 -6.57567 22846 ft 343 kts 149°
2026-04-16 20:43 56.81809 -6.54932 22861 ft 343 kts 149°
2026-04-16 20:44 56.79908 -6.52299 22865 ft 344 kts 149°
2026-04-16 20:44 56.78025 -6.49688 22874 ft 344 kts 148°
2026-04-16 20:44 56.76119 -6.47049 22878 ft 344 kts 149°
2026-04-16 20:44 56.74181 -6.44510 22880 ft 343 kts 151°
2026-04-16 20:45 56.72204 -6.42079 22885 ft 342 kts 152°
2026-04-16 20:45 56.70211 -6.39701 22884 ft 342 kts 153°
2026-04-16 20:45 56.68890 -6.38138 22884 ft 342 kts 153°
2026-04-16 20:45 56.66893 -6.35770 22867 ft 342 kts 153°
2026-04-16 20:46 56.64896 -6.33393 22877 ft 342 kts 153°
2026-04-16 20:46 56.62909 -6.31011 22874 ft 343 kts 152°
2026-04-16 20:46 56.60916 -6.28602 22878 ft 343 kts 152°
2026-04-16 20:46 56.58954 -6.26226 22894 ft 343 kts 152°
2026-04-16 20:47 56.56970 -6.23828 22897 ft 343 kts 152°
2026-04-16 20:47 56.54979 -6.21431 22895 ft 343 kts 152°
2026-04-16 20:47 56.52992 -6.19045 22897 ft 343 kts 152°
2026-04-16 20:47 56.50993 -6.16643 22901 ft 343 kts 152°
2026-04-16 20:48 56.49022 -6.14275 22901 ft 343 kts 152°
2026-04-16 20:48 56.47031 -6.11886 22906 ft 343 kts 152°
2026-04-16 20:48 56.45030 -6.09490 22863 ft 349 kts 152°
2026-04-16 20:48 56.42925 -6.06996 22584 ft 369 kts 152°
2026-04-16 20:49 56.40761 -6.04430 22249 ft 370 kts 152°
2026-04-16 20:49 56.38655 -6.01913 21762 ft 366 kts 152°
2026-04-16 20:49 56.36542 -5.99383 21279 ft 362 kts 152°
2026-04-16 20:49 56.34449 -5.96883 20766 ft 358 kts 152°
2026-04-16 20:50 56.32367 -5.94407 20256 ft 355 kts 152°
2026-04-16 20:50 56.30335 -5.92000 19729 ft 352 kts 152°
2026-04-16 20:50 56.28291 -5.89587 19214 ft 349 kts 152°
2026-04-16 20:50 56.26265 -5.87183 18682 ft 348 kts 150°
2026-04-16 20:51 56.24414 -5.84347 18121 ft 353 kts 139°
2026-04-16 20:51 56.22901 -5.80826 17508 ft 359 kts 126°
2026-04-16 20:51 56.21778 -5.76805 16923 ft 360 kts 119°
2026-04-16 20:51 56.20743 -5.72719 16332 ft 357 kts 119°
2026-04-16 20:52 56.19727 -5.68729 15772 ft 354 kts 119°
2026-04-16 20:52 56.18701 -5.64720 15188 ft 352 kts 119°
2026-04-16 20:52 56.17677 -5.60741 14615 ft 350 kts 119°
2026-04-16 20:52 56.16653 -5.56768 14032 ft 348 kts 119°
2026-04-16 20:53 56.15638 -5.52840 13419 ft 346 kts 119°
2026-04-16 20:53 56.14641 -5.48987 12839 ft 342 kts 119°
2026-04-16 20:53 56.13644 -5.45121 12270 ft 339 kts 119°
2026-04-16 20:53 56.12660 -5.41308 11707 ft 335 kts 119°
2026-04-16 20:54 56.11682 -5.37519 11144 ft 333 kts 120°
2026-04-16 20:54 56.10709 -5.33765 10572 ft 330 kts 120°
2026-04-16 20:54 56.09746 -5.30066 10211 ft 322 kts 120°
2026-04-16 20:54 56.08825 -5.26522 10093 ft 307 kts 120°
2026-04-16 20:55 56.07944 -5.23135 9957 ft 294 kts 120°
2026-04-16 20:55 56.07094 -5.19879 9832 ft 282 kts 121°
2026-04-16 20:55 56.06276 -5.16754 9707 ft 273 kts 120°
2026-04-16 20:55 56.05853 -5.13501 9563 ft 275 kts 95°
2026-04-16 20:56 56.06092 -5.10094 9280 ft 275 kts 84°
2026-04-16 20:56 56.06440 -5.06737 8973 ft 274 kts 84°
2026-04-16 20:56 56.06799 -5.03385 8686 ft 273 kts 84°
2026-04-16 20:56 56.07156 -5.00056 8438 ft 272 kts 84°
2026-04-16 20:57 56.07515 -4.96748 8182 ft 269 kts 84°
2026-04-16 20:57 56.07876 -4.93478 7829 ft 268 kts 84°
2026-04-16 20:57 56.08240 -4.90201 7535 ft 268 kts 84°
2026-04-16 20:57 56.08598 -4.86972 7210 ft 267 kts 84°
2026-04-16 20:58 56.08962 -4.83720 6927 ft 265 kts 84°
2026-04-16 20:58 56.09329 -4.80494 6637 ft 264 kts 84°
2026-04-16 20:58 56.09700 -4.77258 6372 ft 263 kts 84°
2026-04-16 20:58 56.10062 -4.74087 6069 ft 262 kts 84°
2026-04-16 20:59 56.10429 -4.70906 5796 ft 260 kts 84°
2026-04-16 20:59 56.10795 -4.67740 5482 ft 260 kts 84°
2026-04-16 20:59 56.11164 -4.64569 5352 ft 259 kts 84°
2026-04-16 20:59 56.11537 -4.61424 5223 ft 257 kts 84°
2026-04-16 21:00 56.11905 -4.58297 5096 ft 257 kts 84°
2026-04-16 21:00 56.12273 -4.55162 4950 ft 257 kts 84°
2026-04-16 21:00 56.12633 -4.52019 4867 ft 258 kts 84°
2026-04-16 21:00 56.12986 -4.48867 4784 ft 258 kts 84°
2026-04-16 21:01 56.13162 -4.45721 4708 ft 249 kts 104°
2026-04-16 21:01 56.12564 -4.42972 4635 ft 235 kts 130°
2026-04-16 21:01 56.11590 -4.40711 4553 ft 225 kts 137°
2026-04-16 21:01 56.10536 -4.38655 4437 ft 224 kts 139°
2026-04-16 21:02 56.09472 -4.36639 4175 ft 222 kts 139°
2026-04-16 21:02 56.08424 -4.34647 3921 ft 218 kts 139°
2026-04-16 21:02 56.07394 -4.32683 3663 ft 214 kts 139°
2026-04-16 21:03 56.05401 -4.28857 3443 ft 208 kts 139°
2026-04-16 21:03 56.04423 -4.26982 3368 ft 202 kts 139°
2026-04-16 21:03 56.03474 -4.25158 3333 ft 199 kts 139°
2026-04-16 21:03 56.02493 -4.23445 3301 ft 194 kts 150°
2026-04-16 21:04 56.01314 -4.22380 3287 ft 187 kts 168°
2026-04-16 21:04 56.00065 -4.22071 3231 ft 177 kts 184°
2026-04-16 21:04 55.98877 -4.22459 3104 ft 173 kts 200°
2026-04-16 21:04 55.97837 -4.23457 2921 ft 172 kts 215°
2026-04-16 21:05 55.96981 -4.24941 2707 ft 170 kts 223°
2026-04-16 21:05 55.96180 -4.26455 2504 ft 164 kts 223°
2026-04-16 21:05 55.95431 -4.27869 2286 ft 150 kts 222°
2026-04-16 21:05 55.94733 -4.29185 2070 ft 143 kts 221°
2026-04-16 21:06 55.94051 -4.30465 1882 ft 142 kts 221°
2026-04-16 21:06 55.93387 -4.31716 1705 ft 130 kts 220°
2026-04-16 21:06 55.92787 -4.32844 1518 ft 122 kts 220°
2026-04-16 21:06 55.92210 -4.33926 1342 ft 119 kts 221°
2026-04-16 21:07 55.91645 -4.34986 1184 ft 117 kts 221°
2026-04-16 21:07 55.91082 -4.36041 1013 ft 118 kts 222°
2026-04-16 21:07 55.90523 -4.37089 850 ft 116 kts 220°
2026-04-16 21:07 55.89964 -4.38129 674 ft 117 kts 222°
2026-04-16 21:08 55.89403 -4.39190 473 ft 117 kts 222°
2026-04-16 21:08 55.88847 -4.40244 306 ft 116 kts 223°
2026-04-16 21:08 55.88299 -4.41270 190 ft 116 kts 221°
2026-04-16 21:08 55.87746 -4.42309 48 ft 115 kts 221°
2026-04-16 21:09 55.87255 -4.43216 30 ft 82 kts 226°
2026-04-16 21:09 55.86980 -4.43730 29 ft 33 kts 227°
2026-04-16 21:09 55.86887 -4.43906 29 ft 19 kts 226°
2026-04-16 21:09 55.86790 -4.44087 29 ft 22 kts 226°
2026-04-16 21:10 55.86698 -4.44254 29 ft 9 kts 224°
2026-04-16 21:10 55.86631 -4.44246 29 ft 13 kts 132°
2026-04-16 21:10 55.86619 -4.44064 29 ft 16 kts 89°
2026-04-16 21:10 55.86639 -4.43936 29 ft 11 kts 47°
2026-04-16 21:11 55.86695 -4.43828 29 ft 9 kts 49°
2026-04-16 21:11 55.86736 -4.43709 29 ft 13 kts 71°
2026-04-16 21:11 55.86765 -4.43538 29 ft 13 kts 73°
2026-04-16 21:11 55.86780 -4.43450 29 ft 7 kts 73°
2026-04-16 21:12 55.86797 -4.43343 29 ft 10 kts 74°
2026-04-16 21:12 55.86818 -4.43215 29 ft 11 kts 74°
2026-04-16 21:12 55.86835 -4.43110 29 ft 9 kts 73°
2026-04-16 21:12 55.86825 -4.43006 29 ft 9 kts 139°
2026-04-16 21:13 55.86762 -4.42981 29 ft 7 kts 167°
2026-04-16 21:13 55.86719 -4.42992 29 ft 7 kts 237°
2026-04-16 21:13 55.86711 -4.43034 29 ft 3 kts 252°
2026-04-16 21:13 55.86709 -4.43042 29 ft 0 kts 252°